Time;durP1;ratioP1;P1;durP2;ratioP2;P2;SDS_P1;SDS_P2;PMS_P1;PMS_P2;Temp;Humidity;BMP_temperature;BMP_pressure;BME280_temperature;BME280_humidity;BME280_pressure;Samples;Min_cycle;Max_cycle;Signal;HPM_P1;HPM_P2
2022/04/13 00:00:55;;;;;;;7.10;3.95;;;13.80;95.00;;;;;;5085922;28;20051;-77
2022/04/13 00:03:24;;;;;;;8.32;3.53;;;13.80;95.10;;;;;;5067755;28;20489;-77
2022/04/13 00:05:55;;;;;;;4.72;3.03;;;13.80;95.30;;;;;;5080711;28;20119;-77
2022/04/13 00:08:22;;;;;;;4.35;2.80;;;13.70;95.50;;;;;;5047773;28;20056;-77
2022/04/13 00:10:51;;;;;;;5.53;2.88;;;13.70;95.60;;;;;;5096879;28;20039;-76
2022/04/13 00:13:18;;;;;;;6.53;3.28;;;13.70;95.70;;;;;;5079801;28;20056;-77
2022/04/13 00:15:46;;;;;;;5.03;2.75;;;13.60;95.80;;;;;;5055060;28;20139;-76
2022/04/13 00:18:13;;;;;;;4.20;2.78;;;13.60;95.90;;;;;;5063577;28;20043;-77
2022/04/13 00:20:42;;;;;;;4.13;3.03;;;13.60;96.00;;;;;;5060816;28;20160;-77
2022/04/13 00:23:11;;;;;;;5.28;2.85;;;13.60;96.00;;;;;;5063067;28;20075;-76
2022/04/13 00:25:41;;;;;;;4.63;2.70;;;13.60;96.00;;;;;;5063032;28;20123;-77
2022/04/13 00:28:10;;;;;;;4.30;2.60;;;13.60;95.90;;;;;;5064439;28;20048;-76
2022/04/13 00:30:37;;;;;;;5.35;2.65;;;13.60;96.00;;;;;;5073717;28;20486;-77
2022/04/13 00:33:05;;;;;;;4.97;2.70;;;13.60;96.00;;;;;;5083658;28;20047;-77
2022/04/13 00:35:33;;;;;;;6.00;2.90;;;13.60;96.00;;;;;;5068747;28;20090;-77
2022/04/13 00:38:00;;;;;;;3.92;2.63;;;13.50;95.80;;;;;;5062761;28;20057;-76
2022/04/13 00:40:28;;;;;;;4.72;2.88;;;13.50;95.90;;;;;;5074206;28;20071;-77
2022/04/13 00:42:56;;;;;;;4.45;2.55;;;13.50;95.80;;;;;;5060670;28;20063;-78
2022/04/13 00:45:24;;;;;;;3.08;2.20;;;13.50;95.80;;;;;;5076325;28;20525;-76
2022/04/13 00:47:52;;;;;;;6.72;2.85;;;13.40;95.80;;;;;;5067573;28;20039;-77
2022/04/13 00:50:21;;;;;;;4.43;2.55;;;13.40;95.80;;;;;;5061358;28;20554;-78
2022/04/13 00:52:51;;;;;;;5.90;3.08;;;13.40;96.10;;;;;;5098485;28;20040;-77
2022/04/13 00:55:18;;;;;;;4.38;2.45;;;13.40;96.10;;;;;;5064605;28;20044;-77
2022/04/13 00:57:49;;;;;;;4.53;2.22;;;13.30;96.10;;;;;;5077095;28;20067;-78
2022/04/13 01:00:17;;;;;;;3.92;2.53;;;13.30;96.10;;;;;;5089237;28;20047;-78
2022/04/13 01:02:45;;;;;;;4.28;2.67;;;13.30;96.10;;;;;;5043909;28;20126;-77
2022/04/13 01:05:15;;;;;;;4.43;2.70;;;13.30;96.10;;;;;;5048317;28;20048;-77
2022/04/13 01:07:44;;;;;;;6.07;2.35;;;13.30;96.10;;;;;;5046366;28;20046;-76
2022/04/13 01:10:11;;;;;;;3.17;2.58;;;13.30;96.10;;;;;;5076447;28;20102;-77
2022/04/13 01:12:40;;;;;;;4.03;2.85;;;13.30;96.10;;;;;;5082846;28;20048;-77
2022/04/13 01:15:09;;;;;;;3.33;2.45;;;13.30;96.10;;;;;;5051043;28;20045;-77
2022/04/13 01:17:39;;;;;;;5.38;2.63;;;13.30;96.10;;;;;;5064933;28;20071;-77
2022/04/13 01:20:07;;;;;;;7.15;2.97;;;13.30;96.10;;;;;;5068149;28;20047;-76
2022/04/13 01:22:37;;;;;;;3.33;2.38;;;13.30;96.00;;;;;;5059522;28;20070;-77
2022/04/13 01:25:05;;;;;;;5.43;2.55;;;13.30;96.00;;;;;;5064708;28;20093;-78
2022/04/13 01:27:33;;;;;;;3.92;2.92;;;13.20;96.00;;;;;;5083468;28;20093;-78
2022/04/13 01:30:01;;;;;;;8.35;3.55;;;13.10;96.10;;;;;;5068957;28;20395;-78
2022/04/13 01:32:29;;;;;;;3.83;2.50;;;13.10;96.20;;;;;;5081852;28;20516;-78
2022/04/13 01:34:58;;;;;;;4.38;3.20;;;13.10;96.30;;;;;;5059709;28;20058;-78
2022/04/13 01:37:25;;;;;;;3.50;2.60;;;13.10;96.30;;;;;;5055248;28;20071;-77
2022/04/13 01:39:53;;;;;;;4.22;2.85;;;13.10;96.50;;;;;;5075480;28;20410;-77
2022/04/13 01:42:21;;;;;;;4.28;2.45;;;13.10;96.90;;;;;;5080885;28;20067;-77
2022/04/13 01:44:48;;;;;;;3.67;2.53;;;13.00;96.70;;;;;;5070527;28;20032;-77
2022/04/13 01:47:14;;;;;;;3.92;2.63;;;13.00;96.70;;;;;;5071495;28;20127;-77
2022/04/13 01:49:42;;;;;;;4.03;2.28;;;13.00;96.80;;;;;;5068648;28;20048;-77
2022/04/13 01:52:11;;;;;;;6.32;2.83;;;13.00;96.90;;;;;;5050769;28;20070;-78
2022/04/13 01:54:38;;;;;;;7.15;3.08;;;13.00;96.90;;;;;;5054750;28;20051;-78
2022/04/13 01:57:06;;;;;;;5.80;3.40;;;13.00;96.80;;;;;;5081262;28;20517;-79
2022/04/13 01:59:34;;;;;;;5.03;3.45;;;13.00;96.80;;;;;;5072883;28;20078;-77
2022/04/13 02:02:04;;;;;;;9.48;6.00;;;13.00;96.80;;;;;;5082186;28;20079;-77
2022/04/13 02:04:32;;;;;;;10.60;6.32;;;13.00;97.10;;;;;;5101421;28;20059;-77
2022/04/13 02:07:00;;;;;;;13.35;6.32;;;13.00;97.10;;;;;;5048720;28;20109;-79
2022/04/13 02:09:28;;;;;;;8.73;5.55;;;13.00;97.20;;;;;;5091299;28;20110;-77
2022/04/13 02:11:55;;;;;;;12.30;5.38;;;13.00;97.10;;;;;;5039077;28;20494;-77
2022/04/13 02:14:23;;;;;;;10.50;5.40;;;13.00;97.00;;;;;;5072081;28;20367;-77
2022/04/13 02:16:50;;;;;;;9.27;5.57;;;13.00;97.00;;;;;;5056658;28;20049;-77
2022/04/13 02:19:19;;;;;;;9.45;4.47;;;13.00;96.90;;;;;;5039906;28;20139;-79
2022/04/13 02:21:47;;;;;;;6.90;4.25;;;12.90;96.90;;;;;;5039932;28;20542;-78
2022/04/13 02:24:14;;;;;;;8.18;4.45;;;12.90;97.00;;;;;;5055918;28;20048;-79
2022/04/13 02:26:42;;;;;;;6.95;4.55;;;12.90;97.00;;;;;;5055797;28;20121;-77
2022/04/13 02:29:09;;;;;;;7.70;4.43;;;12.90;96.90;;;;;;5040169;28;20052;-77
2022/04/13 02:31:37;;;;;;;7.18;4.57;;;12.90;96.90;;;;;;5062004;28;20047;-77
2022/04/13 02:34:04;;;;;;;8.07;4.38;;;12.90;96.90;;;;;;5063545;28;20516;-78
2022/04/13 02:36:32;;;;;;;11.18;4.95;;;12.90;97.00;;;;;;5114697;28;20050;-78
2022/04/13 02:39:00;;;;;;;6.90;3.38;;;12.90;96.90;;;;;;5080193;28;20087;-77
2022/04/13 02:41:28;;;;;;;7.88;4.35;;;12.90;96.80;;;;;;5079647;28;20070;-77
2022/04/13 02:43:55;;;;;;;5.78;3.30;;;12.90;96.90;;;;;;5096657;28;20048;-78
2022/04/13 02:46:23;;;;;;;5.30;3.33;;;12.80;96.90;;;;;;5096695;28;20082;-77
2022/04/13 02:48:51;;;;;;;9.80;3.85;;;12.80;97.00;;;;;;5062997;28;20493;-78
2022/04/13 02:51:18;;;;;;;9.40;3.95;;;12.80;96.90;;;;;;5079319;28;20047;-78
2022/04/13 02:53:46;;;;;;;10.82;4.57;;;12.80;97.00;;;;;;5095944;28;20184;-78
2022/04/13 02:56:13;;;;;;;5.53;3.20;;;12.70;96.90;;;;;;5079282;28;20138;-78
2022/04/13 02:58:40;;;;;;;5.25;2.70;;;12.70;96.90;;;;;;5079075;28;20058;-78
2022/04/13 03:01:08;;;;;;;4.32;3.00;;;12.70;96.90;;;;;;5079839;28;20132;-79
2022/04/13 03:03:35;;;;;;;6.65;3.65;;;12.70;96.90;;;;;;5038377;28;20449;-78
2022/04/13 03:06:03;;;;;;;5.93;3.22;;;12.70;96.90;;;;;;5055290;28;20563;-78
2022/04/13 03:08:31;;;;;;;4.90;3.25;;;12.70;96.90;;;;;;5038689;28;20056;-78
2022/04/13 03:10:58;;;;;;;5.88;3.00;;;12.60;96.90;;;;;;5038897;28;20057;-78
2022/04/13 03:13:26;;;;;;;6.70;3.83;;;12.70;96.90;;;;;;5055365;28;20135;-78
2022/04/13 03:15:53;;;;;;;7.45;3.80;;;12.70;96.90;;;;;;5022445;28;20050;-78
2022/04/13 03:18:21;;;;;;;6.22;3.10;;;12.60;96.90;;;;;;5038980;28;20051;-78
2022/04/13 03:20:48;;;;;;;4.53;3.20;;;12.60;97.10;;;;;;5054294;28;20060;-80
2022/04/13 03:23:16;;;;;;;7.85;3.10;;;12.60;97.00;;;;;;5038134;28;20514;-79
2022/04/13 03:25:43;;;;;;;5.47;3.13;;;12.60;96.90;;;;;;5053653;28;20067;-78
2022/04/13 03:28:11;;;;;;;4.97;3.33;;;12.50;97.00;;;;;;5038446;28;20052;-78
2022/04/13 03:30:38;;;;;;;5.45;2.85;;;12.50;96.80;;;;;;5055097;28;20052;-78
2022/04/13 03:33:06;;;;;;;5.90;2.85;;;12.50;96.90;;;;;;5055245;28;20082;-78
2022/04/13 03:35:33;;;;;;;3.15;2.75;;;12.40;96.90;;;;;;5022273;28;20159;-78
2022/04/13 03:38:01;;;;;;;4.60;3.03;;;12.40;96.90;;;;;;5038360;28;20051;-78
2022/04/13 03:40:28;;;;;;;5.38;2.75;;;12.40;96.90;;;;;;5038332;28;20059;-79
2022/04/13 03:42:56;;;;;;;7.47;2.67;;;12.40;97.00;;;;;;5038710;28;20076;-78
2022/04/13 03:45:23;;;;;;;5.82;2.53;;;12.40;96.90;;;;;;5038571;28;20041;-78
2022/04/13 03:47:51;;;;;;;6.22;2.90;;;12.40;97.00;;;;;;5022232;28;20577;-80
2022/04/13 03:50:19;;;;;;;5.32;3.03;;;12.40;97.10;;;;;;5051640;28;20051;-78
2022/04/13 03:52:47;;;;;;;8.07;4.18;;;12.40;97.20;;;;;;5041345;28;20051;-78
2022/04/13 03:55:14;;;;;;;3.42;2.80;;;12.40;97.30;;;;;;5041547;28;20052;-78
2022/04/13 03:57:42;;;;;;;4.78;2.95;;;12.40;97.30;;;;;;5092583;28;20048;-78
2022/04/13 04:00:10;;;;;;;5.88;3.30;;;12.40;97.30;;;;;;5058315;28;20055;-78
2022/04/13 04:02:40;;;;;;;7.13;3.20;;;12.40;97.40;;;;;;5074600;28;20044;-78
2022/04/13 04:05:08;;;;;;;5.15;2.75;;;12.40;97.40;;;;;;5092791;28;20059;-77
2022/04/13 04:07:39;;;;;;;4.05;3.00;;;12.40;97.50;;;;;;5041868;28;20052;-79
2022/04/13 04:10:08;;;;;;;5.20;3.00;;;12.40;97.50;;;;;;5041742;28;20101;-79
2022/04/13 04:12:39;;;;;;;5.97;3.10;;;12.40;97.40;;;;;;5092430;28;20036;-79
2022/04/13 04:15:09;;;;;;;4.47;2.20;;;12.40;97.40;;;;;;5058593;28;20390;-78
2022/04/13 04:17:37;;;;;;;4.45;2.92;;;12.40;97.50;;;;;;5074200;28;20501;-78
2022/04/13 04:20:06;;;;;;;8.65;3.58;;;12.40;97.40;;;;;;5057496;28;20048;-78
2022/04/13 04:22:35;;;;;;;5.55;2.88;;;12.40;97.40;;;;;;5057501;28;20040;-78
2022/04/13 04:25:07;;;;;;;4.22;2.63;;;12.40;97.40;;;;;;5074226;28;20067;-78
2022/04/13 04:27:35;;;;;;;5.60;3.88;;;12.40;97.60;;;;;;5041004;28;20484;-78
2022/04/13 04:30:03;;;;;;;4.35;3.10;;;12.40;97.60;;;;;;5092007;28;20044;-78
2022/04/13 04:32:32;;;;;;;5.57;3.30;;;12.50;97.50;;;;;;5057300;28;20048;-78
2022/04/13 04:34:59;;;;;;;6.10;3.38;;;12.50;97.50;;;;;;5057374;28;20451;-79
2022/04/13 04:37:27;;;;;;;5.05;3.20;;;12.50;97.50;;;;;;5074098;28;20105;-78
2022/04/13 04:39:54;;;;;;;8.30;3.10;;;12.60;97.50;;;;;;5057617;28;20573;-77
2022/04/13 04:42:22;;;;;;;4.13;2.65;;;12.60;97.60;;;;;;5058029;28;20072;-78
2022/04/13 04:44:58;;;;;;;4.68;2.78;;;12.70;97.60;;;;;;5073974;28;20060;-77
2022/04/13 04:47:25;;;;;;;4.13;2.47;;;12.80;97.50;;;;;;5041383;28;20374;-78
2022/04/13 04:49:53;;;;;;;5.28;2.70;;;12.90;97.50;;;;;;5055437;28;20707;-78
2022/04/13 04:52:21;;;;;;;8.30;3.17;;;13.00;97.40;;;;;;5057351;28;20040;-78
2022/04/13 04:54:48;;;;;;;5.13;2.55;;;13.20;97.40;;;;;;5074031;28;20040;-77
2022/04/13 04:57:16;;;;;;;5.50;3.50;;;13.30;97.40;;;;;;5074423;28;20079;-77
2022/04/13 04:59:43;;;;;;;6.13;3.22;;;13.40;97.40;;;;;;5040959;28;20138;-78
2022/04/13 05:02:11;;;;;;;7.60;3.13;;;13.60;97.40;;;;;;5057439;28;20077;-78
2022/04/13 05:04:38;;;;;;;6.78;3.25;;;13.70;97.10;;;;;;5073214;28;20056;-78
2022/04/13 05:07:07;;;;;;;8.88;3.38;;;13.90;97.20;;;;;;5057128;28;20143;-77
2022/04/13 05:09:34;;;;;;;5.78;3.58;;;14.10;97.10;;;;;;5057417;28;20113;-78
2022/04/13 05:12:02;;;;;;;10.82;3.53;;;14.20;96.80;;;;;;5057293;28;20043;-79
2022/04/13 05:14:30;;;;;;;9.95;3.90;;;14.50;96.70;;;;;;5040700;28;20122;-78
2022/04/13 05:16:57;;;;;;;7.57;4.20;;;14.60;96.60;;;;;;5057124;28;20072;-77
2022/04/13 05:19:26;;;;;;;5.90;3.33;;;14.80;96.50;;;;;;5073585;28;20055;-77
2022/04/13 05:21:54;;;;;;;8.13;3.65;;;15.00;96.20;;;;;;5091981;28;20402;-77
2022/04/13 05:24:21;;;;;;;7.90;3.28;;;15.20;96.10;;;;;;5057134;28;20394;-77
2022/04/13 05:26:49;;;;;;;6.10;3.78;;;15.40;96.10;;;;;;5056886;28;20063;-77
2022/04/13 05:29:16;;;;;;;7.93;3.70;;;15.50;95.90;;;;;;5056742;28;20066;-77
2022/04/13 05:31:44;;;;;;;10.55;5.97;;;15.70;95.80;;;;;;5074275;28;20052;-77
2022/04/13 05:34:12;;;;;;;11.15;5.63;;;15.70;95.60;;;;;;5040644;28;20051;-77
2022/04/13 05:36:39;;;;;;;8.80;4.40;;;15.80;95.40;;;;;;5055990;28;20083;-79
2022/04/13 05:39:07;;;;;;;7.03;3.78;;;16.00;95.30;;;;;;5056772;28;20455;-77
2022/04/13 05:41:35;;;;;;;7.45;3.90;;;16.20;95.20;;;;;;5073472;28;20394;-77
2022/04/13 05:44:03;;;;;;;7.25;3.83;;;16.30;95.10;;;;;;5056868;28;20044;-77
2022/04/13 05:46:33;;;;;;;8.23;4.10;;;16.40;94.90;;;;;;5057050;28;20044;-77
2022/04/13 05:49:01;;;;;;;5.60;3.53;;;16.60;94.80;;;;;;5043567;28;20084;-78
2022/04/13 05:51:28;;;;;;;4.72;3.15;;;16.70;94.60;;;;;;5041018;28;20040;-77
2022/04/13 05:53:56;;;;;;;4.85;3.60;;;16.80;94.60;;;;;;5057945;28;20049;-77
2022/04/13 05:56:23;;;;;;;3.72;3.00;;;17.00;94.40;;;;;;5041022;28;20055;-78
2022/04/13 05:58:53;;;;;;;3.85;2.65;;;17.00;94.40;;;;;;5041775;28;20040;-77
2022/04/13 06:01:21;;;;;;;7.93;2.10;;;17.10;94.40;;;;;;5024793;28;20053;-78
2022/04/13 06:03:48;;;;;;;4.50;2.10;;;17.30;94.30;;;;;;5037878;28;20059;-77
2022/04/13 06:06:16;;;;;;;6.18;2.60;;;17.30;94.30;;;;;;5054102;28;20135;-77
2022/04/13 06:08:44;;;;;;;4.13;2.63;;;17.50;94.30;;;;;;5054278;28;20417;-77
2022/04/13 06:11:11;;;;;;;3.13;1.77;;;17.60;94.20;;;;;;5055092;28;20060;-78
2022/04/13 06:13:39;;;;;;;2.80;1.80;;;17.70;94.00;;;;;;5054286;28;20434;-77
2022/04/13 06:16:08;;;;;;;4.43;2.10;;;17.70;93.70;;;;;;5055681;28;20071;-77
2022/04/13 06:18:35;;;;;;;4.05;1.70;;;17.80;93.60;;;;;;5054346;28;20102;-81
2022/04/13 06:21:03;;;;;;;3.63;1.95;;;17.90;93.60;;;;;;5054263;28;20509;-77
2022/04/13 06:23:31;;;;;;;4.22;1.80;;;18.00;93.50;;;;;;5054860;28;20037;-77
2022/04/13 06:25:58;;;;;;;3.85;1.98;;;18.00;93.40;;;;;;5038508;28;20057;-79
2022/04/13 06:28:26;;;;;;;3.28;1.75;;;18.00;93.10;;;;;;5054558;28;20068;-81
2022/04/13 06:30:53;;;;;;;6.45;2.35;;;18.00;93.00;;;;;;5054937;28;20041;-76
2022/04/13 06:33:21;;;;;;;3.92;2.35;;;17.90;93.00;;;;;;5053248;28;20110;-76
2022/04/13 06:35:48;;;;;;;5.32;2.78;;;17.90;92.90;;;;;;5037716;28;20095;-76
2022/04/13 06:38:16;;;;;;;4.43;2.30;;;17.90;93.10;;;;;;5037037;28;20051;-77
2022/04/13 06:40:44;;;;;;;8.02;2.88;;;18.00;93.10;;;;;;5036419;28;20049;-76
2022/04/13 06:43:11;;;;;;;6.15;2.92;;;18.10;93.00;;;;;;5053100;28;20159;-77
2022/04/13 06:45:40;;;;;;;3.17;1.90;;;18.10;92.80;;;;;;5063520;28;20041;-74
2022/04/13 06:48:08;;;;;;;4.00;2.47;;;18.20;92.80;;;;;;5073981;28;20056;-76
2022/04/13 06:50:36;;;;;;;4.07;2.15;;;18.30;92.70;;;;;;5075665;28;20141;-76
2022/04/13 06:53:04;;;;;;;4.13;2.22;;;18.40;92.20;;;;;;5034178;28;20049;-76
2022/04/13 06:55:31;;;;;;;3.22;1.85;;;18.50;92.30;;;;;;5080768;28;20073;-77
2022/04/13 06:57:59;;;;;;;3.00;1.70;;;18.40;92.00;;;;;;5054692;28;20059;-75
2022/04/13 07:00:26;;;;;;;6.38;2.17;;;18.50;91.70;;;;;;5054283;28;20053;-76
2022/04/13 07:02:57;;;;;;;3.65;1.95;;;18.60;91.60;;;;;;5083634;28;20148;-75
2022/04/13 07:05:37;;;;;;;3.47;2.28;;;18.80;91.60;;;;;;5087120;28;20040;-75
2022/04/13 07:08:06;;;;;;;4.53;1.77;;;18.80;90.90;;;;;;5060291;28;20051;-75
2022/04/13 07:10:35;;;;;;;2.67;1.70;;;18.90;90.60;;;;;;5067112;28;20144;-76
2022/04/13 07:13:03;;;;;;;2.95;1.40;;;18.90;90.20;;;;;;5061271;28;20189;-74
2022/04/13 07:15:31;;;;;;;5.18;1.75;;;18.70;90.10;;;;;;5077798;28;20086;-75
2022/04/13 07:17:59;;;;;;;3.83;1.90;;;18.70;89.80;;;;;;5060513;28;20047;-75
2022/04/13 07:20:27;;;;;;;5.28;2.20;;;18.80;89.90;;;;;;5060793;28;20074;-75
2022/04/13 07:22:55;;;;;;;2.85;1.70;;;18.90;89.90;;;;;;5060816;28;20056;-75
2022/04/13 07:25:24;;;;;;;2.75;1.90;;;19.00;88.70;;;;;;5061280;28;20059;-75
2022/04/13 07:27:51;;;;;;;3.65;2.05;;;19.10;88.80;;;;;;5059633;28;20044;-75
2022/04/13 07:30:19;;;;;;;2.88;1.90;;;19.10;87.40;;;;;;5059993;28;20044;-75
2022/04/13 07:32:51;;;;;;;4.47;2.00;;;19.30;87.30;;;;;;5060308;28;20062;-76
2022/04/13 07:35:19;;;;;;;3.33;1.77;;;19.40;88.10;;;;;;5094472;28;20050;-75
2022/04/13 07:37:47;;;;;;;6.00;2.72;;;19.10;87.60;;;;;;5077062;28;20040;-75
2022/04/13 07:40:17;;;;;;;3.28;1.67;;;19.30;86.70;;;;;;5077067;28;20040;-76
2022/04/13 07:42:45;;;;;;;3.88;1.77;;;19.50;86.10;;;;;;5059952;28;20094;-76
2022/04/13 07:45:13;;;;;;;5.90;2.00;;;19.70;85.30;;;;;;5076928;28;20040;-76
2022/04/13 07:47:41;;;;;;;3.50;1.58;;;19.90;83.20;;;;;;5095030;28;20114;-75
2022/04/13 07:50:13;;;;;;;2.80;1.70;;;20.10;83.70;;;;;;5043796;28;20055;-78
2022/04/13 07:52:42;;;;;;;3.30;1.95;;;19.70;84.10;;;;;;5043439;28;20059;-76
2022/04/13 07:55:11;;;;;;;4.70;1.75;;;19.80;84.50;;;;;;5059795;28;20051;-76
2022/04/13 07:57:39;;;;;;;3.85;1.95;;;19.80;83.90;;;;;;5075499;28;20137;-72
2022/04/13 08:00:10;;;;;;;3.17;1.40;;;19.80;83.20;;;;;;5057716;28;20412;-72
2022/04/13 08:02:42;;;;;;;1.95;1.38;;;19.70;82.40;;;;;;5057496;28;20079;-72
2022/04/13 08:05:15;;;;;;;2.40;1.40;;;19.70;81.50;;;;;;5074352;28;20125;-73
2022/04/13 08:07:42;;;;;;;2.78;1.50;;;19.70;81.50;;;;;;5040818;28;20151;-73
2022/04/13 08:10:11;;;;;;;3.33;1.35;;;19.80;81.20;;;;;;5074326;28;20378;-72
2022/04/13 08:12:40;;;;;;;6.13;2.28;;;19.80;77.60;;;;;;5039823;28;20047;-73
2022/04/13 08:15:09;;;;;;;5.07;1.73;;;19.50;76.20;;;;;;5057710;28;20047;-73
2022/04/13 08:17:40;;;;;;;1.73;1.27;;;19.50;79.40;;;;;;5091779;28;20131;-73
2022/04/13 08:20:10;;;;;;;3.15;1.70;;;19.50;79.90;;;;;;5057052;28;20047;-71
2022/04/13 08:22:38;;;;;;;4.63;1.63;;;19.60;80.30;;;;;;5073295;28;20131;-73
2022/04/13 08:25:06;;;;;;;3.92;1.55;;;19.80;81.10;;;;;;5091645;28;20044;-72
2022/04/13 08:27:33;;;;;;;2.88;1.33;;;20.00;81.40;;;;;;5073401;28;20516;-71
2022/04/13 08:30:01;;;;;;;3.40;1.98;;;20.20;81.40;;;;;;5091593;28;20077;-73
2022/04/13 08:32:29;;;;;;;6.80;2.05;;;20.40;80.40;;;;;;5084593;28;20055;-73
2022/04/13 08:34:57;;;;;;;4.15;1.45;;;20.50;79.50;;;;;;5036874;28;20055;-73
2022/04/13 08:37:25;;;;;;;2.28;1.48;;;20.60;80.40;;;;;;5053480;28;20055;-73
2022/04/13 08:39:53;;;;;;;2.47;1.48;;;20.60;80.40;;;;;;5053111;28;20094;-73
2022/04/13 08:42:31;;;;;;;2.80;1.10;;;20.70;79.60;;;;;;5036355;28;20045;-72
2022/04/13 08:45:08;;;;;;;3.22;1.75;;;20.80;80.30;;;;;;5036934;28;20445;-74
2022/04/13 08:47:41;;;;;;;2.70;1.65;;;20.60;76.30;;;;;;5036998;28;20052;-72
2022/04/13 08:50:11;;;;;;;2.38;1.50;;;20.60;76.00;;;;;;5053162;28;20502;-71
2022/04/13 08:52:39;;;;;;;7.80;2.88;;;20.30;78.10;;;;;;5052931;28;20048;-72
2022/04/13 08:55:11;;;;;;;2.20;1.42;;;20.10;78.50;;;;;;5053207;28;20045;-72
2022/04/13 08:57:43;;;;;;;4.53;1.42;;;20.20;78.40;;;;;;5053588;28;20190;-71
2022/04/13 09:00:18;;;;;;;2.67;1.25;;;20.30;78.10;;;;;;5053534;28;20037;-71
2022/04/13 09:02:53;;;;;;;2.08;1.23;;;20.30;78.80;;;;;;5036396;28;20913;-71
2022/04/13 09:05:28;;;;;;;3.17;1.65;;;20.30;80.20;;;;;;5036339;28;20075;-71
2022/04/13 09:08:05;;;;;;;3.80;1.90;;;20.10;80.50;;;;;;5020208;28;20048;-73
2022/04/13 09:10:33;;;;;;;2.25;1.33;;;20.10;81.30;;;;;;5070833;28;20044;-71
2022/04/13 09:13:02;;;;;;;3.25;1.50;;;20.20;81.30;;;;;;5036602;28;20037;-71
2022/04/13 09:15:31;;;;;;;3.17;1.80;;;20.40;80.60;;;;;;5052578;28;20067;-74
2022/04/13 09:18:00;;;;;;;6.68;1.27;;;20.50;79.80;;;;;;5019955;28;20045;-73
2022/04/13 09:20:28;;;;;;;2.38;1.30;;;20.50;78.70;;;;;;5052338;28;20498;-74
2022/04/13 09:22:58;;;;;;;3.13;1.48;;;20.60;79.00;;;;;;5071017;28;20044;-73
2022/04/13 09:25:27;;;;;;;2.63;1.80;;;20.60;79.50;;;;;;5036495;28;20558;-73
2022/04/13 09:27:56;;;;;;;3.35;1.85;;;20.60;80.30;;;;;;5036341;28;20048;-75
2022/04/13 09:30:24;;;;;;;2.10;1.50;;;20.10;81.10;;;;;;5040878;28;20052;-73
2022/04/13 09:32:52;;;;;;;2.13;1.40;;;20.20;81.20;;;;;;5052891;28;20082;-74
2022/04/13 09:35:20;;;;;;;2.75;1.40;;;20.20;78.90;;;;;;5070618;28;20483;-74
2022/04/13 09:37:48;;;;;;;3.47;1.85;;;20.10;77.60;;;;;;5052577;28;20063;-73
2022/04/13 09:40:40;;;;;;;3.10;1.50;;;20.30;79.00;;;;;;5036141;28;20049;-73
2022/04/13 09:43:14;;;;;;;2.30;1.50;;;20.40;80.20;;;;;;5027649;28;20067;-72
2022/04/13 09:45:43;;;;;;;3.20;1.67;;;20.50;80.60;;;;;;5035684;28;20135;-73
2022/04/13 09:48:14;;;;;;;7.97;2.28;;;20.70;80.00;;;;;;5052625;28;20047;-73
2022/04/13 09:50:44;;;;;;;6.72;1.67;;;20.70;79.00;;;;;;5036244;28;20056;-73
2022/04/13 09:53:13;;;;;;;2.33;1.60;;;20.80;78.40;;;;;;5052412;28;20057;-72
2022/04/13 09:55:59;;;;;;;2.70;1.60;;;20.70;77.10;;;;;;5052353;28;20048;-73
2022/04/13 09:58:30;;;;;;;1.90;1.30;;;20.70;76.80;;;;;;5052439;28;20037;-74
2022/04/13 10:01:03;;;;;;;2.45;1.30;;;20.70;77.20;;;;;;5052246;28;20070;-74
2022/04/13 10:03:30;;;;;;;2.35;1.40;;;20.80;77.10;;;;;;5032788;28;20150;-75
2022/04/13 10:05:59;;;;;;;3.60;1.60;;;20.90;78.30;;;;;;5032400;28;20048;-74
2022/04/13 10:08:28;;;;;;;2.95;1.77;;;20.80;78.60;;;;;;5032182;28;20056;-78
2022/04/13 10:11:00;;;;;;;2.45;1.40;;;20.50;78.40;;;;;;5048652;28;20409;-71
2022/04/13 10:13:37;;;;;;;3.00;1.58;;;20.20;79.50;;;;;;5032511;28;20116;-72
2022/04/13 10:16:12;;;;;;;4.97;1.23;;;20.10;78.70;;;;;;5050363;28;20049;-74
2022/04/13 10:18:55;;;;;;;2.37;1.77;;;20.20;79.10;;;;;;5047991;28;20169;-74
2022/04/13 10:21:52;;;;;;;2.92;1.40;;;20.40;79.80;;;;;;5047933;28;20055;-73
2022/04/13 10:24:26;;;;;;;2.85;1.77;;;20.60;78.60;;;;;;5031975;28;20388;-74
2022/04/13 10:27:03;;;;;;;3.00;1.58;;;20.80;78.00;;;;;;5031971;28;20060;-74
2022/04/13 10:29:33;;;;;;;2.15;1.42;;;21.00;78.00;;;;;;5031486;28;20099;-73
2022/04/13 10:32:08;;;;;;;3.25;1.58;;;21.10;77.60;;;;;;5049202;28;20057;-73
2022/04/13 10:34:40;;;;;;;1.50;1.23;;;20.90;77.80;;;;;;5048343;28;20099;-74
2022/04/13 10:37:11;;;;;;;2.65;1.48;;;20.90;77.30;;;;;;5035557;28;20041;-73
2022/04/13 10:39:41;;;;;;;4.75;1.67;;;20.80;77.50;;;;;;5052040;28;20049;-73
2022/04/13 10:42:10;;;;;;;3.45;1.40;;;21.00;77.40;;;;;;5051828;28;20045;-73
2022/04/13 10:44:50;;;;;;;5.32;1.58;;;21.00;77.20;;;;;;5053041;28;20049;-74
2022/04/13 10:47:24;;;;;;;7.18;1.67;;;21.10;77.20;;;;;;5035523;28;20045;-75
2022/04/13 10:50:02;;;;;;;3.15;1.80;;;21.00;78.00;;;;;;5018545;28;20150;-75
2022/04/13 10:53:01;;;;;;;2.97;1.48;;;21.00;77.20;;;;;;5068408;28;20088;-76
2022/04/13 10:55:30;;;;;;;2.65;1.48;;;21.10;77.80;;;;;;5045646;28;20053;-74
2022/04/13 10:58:03;;;;;;;4.18;2.30;;;21.10;77.70;;;;;;5051481;28;20045;-74
2022/04/13 11:00:34;;;;;;;2.60;1.20;;;20.90;78.50;;;;;;5068421;28;20126;-73
2022/04/13 11:03:05;;;;;;;2.30;1.50;;;20.70;79.00;;;;;;5051553;28;20045;-73
2022/04/13 11:05:34;;;;;;;2.83;1.45;;;20.80;80.20;;;;;;5035286;28;20071;-74
2022/04/13 11:08:26;;;;;;;2.35;1.55;;;20.90;79.40;;;;;;5051448;28;20052;-74
2022/04/13 11:10:54;;;;;;;3.20;1.52;;;20.80;79.20;;;;;;5051113;28;20045;-74
2022/04/13 11:13:22;;;;;;;2.08;1.42;;;20.70;78.90;;;;;;5051610;28;20119;-73
2022/04/13 11:15:52;;;;;;;4.40;1.48;;;20.70;80.00;;;;;;5034815;28;20154;-74
2022/04/13 11:18:20;;;;;;;2.38;1.30;;;20.50;79.70;;;;;;5034934;28;20053;-75
2022/04/13 11:21:07;;;;;;;3.53;1.65;;;20.50;80.60;;;;;;5050238;28;20063;-74
2022/04/13 11:23:51;;;;;;;3.30;1.80;;;20.50;81.10;;;;;;5050877;28;20379;-73
2022/04/13 11:26:48;;;;;;;4.63;1.60;;;20.30;80.70;;;;;;5045536;28;20059;-74
2022/04/13 11:29:19;;;;;;;3.25;2.10;;;20.10;82.00;;;;;;5034730;28;20056;-74
2022/04/13 11:32:00;;;;;;;2.88;1.60;;;20.10;82.20;;;;;;5034636;28;20052;-74
2022/04/13 11:34:44;;;;;;;3.28;1.40;;;20.10;82.90;;;;;;5050570;28;20147;-76
2022/04/13 11:37:23;;;;;;;2.53;1.45;;;20.10;83.70;;;;;;5051565;28;20063;-77
2022/04/13 11:40:00;;;;;;;2.30;1.50;;;20.20;84.00;;;;;;5051722;28;20526;-77
2022/04/13 11:42:28;;;;;;;;;;;20.10;84.30;;;;;;5034514;28;20052;-74
2022/04/13 11:45:06;;;;;;;3.67;1.65;;;20.00;84.10;;;;;;5050973;28;20665;-74
2022/04/13 11:47:44;;;;;;;2.63;1.80;;;20.00;84.60;;;;;;5051121;28;20065;-73
2022/04/13 11:50:12;;;;;;;3.45;1.63;;;20.10;84.10;;;;;;5067494;28;20430;-72
2022/04/13 11:52:46;;;;;;;4.28;1.95;;;20.00;84.10;;;;;;5051918;28;20394;-72
2022/04/13 11:55:27;;;;;;;2.28;1.30;;;20.00;84.20;;;;;;5051024;28;20060;-72
2022/04/13 11:58:09;;;;;;;2.97;1.50;;;20.00;84.00;;;;;;5052178;28;20049;-71
2022/04/13 12:00:55;;;;;;;2.63;1.50;;;20.00;84.10;;;;;;5017737;28;20064;-72
2022/04/13 12:03:26;;;;;;;5.30;2.15;;;20.10;83.80;;;;;;5049364;28;20053;-72
2022/04/13 12:06:08;;;;;;;3.05;1.65;;;20.00;83.50;;;;;;5050024;28;20095;-72
2022/04/13 12:08:41;;;;;;;2.40;1.40;;;19.80;83.80;;;;;;5050463;28;20419;-72
2022/04/13 12:11:14;;;;;;;4.20;2.40;;;19.90;84.40;;;;;;5051102;28;20056;-71
2022/04/13 12:13:57;;;;;;;4.78;1.65;;;19.70;84.20;;;;;;5039981;28;20491;-73
2022/04/13 12:16:27;;;;;;;5.65;2.13;;;19.70;83.80;;;;;;5055051;28;20098;-75
2022/04/13 12:19:01;;;;;;;2.65;1.70;;;19.70;83.90;;;;;;5062898;28;20124;-71
2022/04/13 12:21:31;;;;;;;5.50;1.83;;;19.70;84.10;;;;;;5052892;28;20049;-72
2022/04/13 12:24:03;;;;;;;3.30;1.70;;;19.70;84.60;;;;;;5057666;28;20493;-72
2022/04/13 12:26:42;;;;;;;2.25;1.60;;;19.50;85.10;;;;;;5035712;28;20882;-72
2022/04/13 12:29:17;;;;;;;3.08;1.55;;;19.40;84.70;;;;;;5048933;28;20145;-72
2022/04/13 12:31:49;;;;;;;2.28;1.30;;;19.50;85.30;;;;;;5033767;28;20186;-71
2022/04/13 12:34:19;;;;;;;2.58;1.98;;;19.50;84.90;;;;;;5049887;28;20052;-75
2022/04/13 12:37:01;;;;;;;3.67;1.95;;;19.60;84.90;;;;;;5049888;28;20080;-74
2022/04/13 12:39:34;;;;;;;2.03;1.42;;;19.60;84.90;;;;;;5051130;28;20613;-70
2022/04/13 12:42:04;;;;;;;4.35;2.28;;;19.60;84.80;;;;;;5053538;28;20044;-71
2022/04/13 12:44:32;;;;;;;3.78;2.17;;;19.50;85.70;;;;;;5047127;28;20052;-71
2022/04/13 12:47:12;;;;;;;3.40;1.67;;;19.50;86.50;;;;;;5053200;28;20135;-72
2022/04/13 12:49:41;;;;;;;2.85;1.52;;;19.40;86.40;;;;;;5059251;28;20067;-71
2022/04/13 12:52:09;;;;;;;1.85;1.30;;;19.40;86.70;;;;;;5053152;28;20456;-74
2022/04/13 12:54:40;;;;;;;5.13;1.80;;;19.40;87.00;;;;;;5033546;28;20048;-72
2022/04/13 12:57:08;;;;;;;3.72;1.55;;;19.20;87.00;;;;;;5033309;28;20048;-72
2022/04/13 12:59:38;;;;;;;5.40;2.08;;;19.00;87.10;;;;;;5043900;28;20045;-72
2022/04/13 13:02:06;;;;;;;2.53;1.40;;;19.00;87.40;;;;;;5049468;28;20579;-72